Palpala, Argentina
Current Conditions -  °F | °C
As of 11:00 PM on Sunday 21 Dec 2014 (Local Time) from SASJ Reporting Station
Drizzle Drizzle  
Wind Chill: 59°   Ceiling: 4000
Heat Index: 59°   Visibility: 1.8mi
Dew Point: 59°   Wind: 13mph
Humidity: 100%   Direction: 230°SW
Pressure: 30"   Gusts: NA
Location:  24.25°S, 65.2°W
Report Text: SASJ 220200Z 23011KT 3000 DZ BR SCT005OVC040 15/15 Q1016
Loading
Personal Weather Stations






























Interactive Weather Map New forecast layout! Learn more

10-Day Weather Forecast

Advertisements
Track Severe Weather on mobile